Time;durP1;ratioP1;P1;durP2;ratioP2;P2;SDS_P1;SDS_P2;PMS_P1;PMS_P2;Temp;Humidity;BMP_temperature;BMP_pressure;BME280_temperature;BME280_humidity;BME280_pressure;Samples;Min_cycle;Max_cycle;Signal;HPM_P1;HPM_P2
2021/12/26 00:01:27;;;;;;;55.90;10.90;;;;;;;;;;5004551;28;20198;-54
2021/12/26 00:03:53;;;;;;;48.77;9.40;;;;;;;;;;5004374;28;20188;-54
2021/12/26 00:06:28;;;;;;;43.00;8.43;;;-6.40;99.90;;;;;;5001266;28;20196;-54
2021/12/26 00:08:56;;;;;;;54.17;10.63;;;-6.90;99.90;;;;;;5003015;28;20678;-54
2021/12/26 00:11:23;;;;;;;65.47;12.67;;;-6.90;99.90;;;;;;4997447;28;22704;-54
2021/12/26 00:13:50;;;;;;;71.77;14.60;;;-7.10;99.90;;;;;;4997301;28;20668;-54
2021/12/26 00:16:17;;;;;;;51.57;10.20;;;-7.30;99.90;;;;;;5004238;28;20751;-54
2021/12/26 00:18:45;;;;;;;52.27;10.63;;;-7.20;99.90;;;;;;4998533;28;20181;-54
2021/12/26 00:21:12;;;;;;;55.40;11.47;;;-7.20;99.90;;;;;;4998217;28;20739;-54
2021/12/26 00:23:38;;;;;;;73.90;15.40;;;-6.90;99.90;;;;;;4988536;28;20266;-55
2021/12/26 00:26:04;;;;;;;61.73;12.53;;;-7.40;99.90;;;;;;4983989;28;20199;-54
2021/12/26 00:28:30;;;;;;;62.97;13.20;;;-7.40;99.90;;;;;;4993850;28;20184;-55
2021/12/26 00:30:56;;;;;;;55.60;11.50;;;-7.50;99.90;;;;;;4995253;28;20319;-53
2021/12/26 00:33:22;;;;;;;38.90;8.87;;;-7.50;99.90;;;;;;4999265;28;20302;-54
2021/12/26 00:35:47;;;;;;;56.43;12.00;;;-8.60;99.90;;;;;;4999685;28;20176;-54
2021/12/26 00:38:13;;;;;;;42.00;8.93;;;-7.70;99.90;;;;;;5007629;28;20274;-54
2021/12/26 00:40:40;;;;;;;37.77;8.20;;;-7.60;99.90;;;;;;5001530;28;20200;-53
2021/12/26 00:43:06;;;;;;;57.90;11.67;;;-7.60;99.90;;;;;;5007822;28;20303;-55
2021/12/26 00:45:32;;;;;;;51.87;11.27;;;-7.90;99.90;;;;;;4994401;28;20216;-54
2021/12/26 00:47:58;;;;;;;59.40;13.00;;;-7.70;99.90;;;;;;5005072;28;20219;-54
2021/12/26 00:50:27;;;;;;;57.20;12.77;;;-7.70;99.90;;;;;;5002116;28;20275;-54
2021/12/26 00:52:54;;;;;;;39.17;8.70;;;-7.60;99.90;;;;;;5006147;28;20208;-54
2021/12/26 00:55:20;;;;;;;55.10;12.07;;;-7.70;99.90;;;;;;5004437;28;20589;-54
2021/12/26 00:57:46;;;;;;;33.87;7.50;;;-7.80;99.90;;;;;;5012776;28;20258;-54
2021/12/26 01:00:21;;;;;;;25.97;5.70;;;-7.80;99.90;;;;;;5006805;28;20275;-54
2021/12/26 01:02:48;;;;;;;27.70;6.33;;;-7.70;99.90;;;;;;4995464;28;20295;-54
2021/12/26 01:05:14;;;;;;;27.23;6.63;;;-8.00;99.90;;;;;;5007839;28;20271;-55
2021/12/26 01:10:08;;;;;;;41.87;9.30;;;-7.70;99.90;;;;;;5005756;28;20278;-53
2021/12/26 01:12:35;;;;;;;33.60;7.70;;;-7.70;99.90;;;;;;5013159;28;20200;-53
2021/12/26 01:15:06;;;;;;;35.23;8.23;;;-7.70;99.90;;;;;;5009489;28;20660;-54
2021/12/26 01:17:32;;;;;;;52.03;12.07;;;-7.80;99.90;;;;;;5015076;28;20197;-53
2021/12/26 01:19:58;;;;;;;43.90;10.17;;;-7.80;99.90;;;;;;5013234;28;20194;-54
2021/12/26 01:22:24;;;;;;;33.63;7.77;;;-7.50;99.90;;;;;;5009356;28;20212;-54
2021/12/26 01:24:57;;;;;;;29.33;6.90;;;-7.80;99.90;;;;;;5004851;28;20258;-54
2021/12/26 01:27:24;;;;;;;39.73;9.40;;;-7.80;99.90;;;;;;5007536;28;20185;-54
2021/12/26 01:29:50;;;;;;;37.63;8.97;;;-8.00;99.90;;;;;;5006296;28;20211;-53
2021/12/26 01:32:16;;;;;;;40.47;9.33;;;-8.00;99.90;;;;;;4990961;28;20292;-54
2021/12/26 01:34:42;;;;;;;31.03;7.27;;;-8.00;99.90;;;;;;5012229;28;20185;-54
2021/12/26 01:37:07;;;;;;;28.17;6.93;;;-8.00;99.90;;;;;;5017942;28;20514;-54
2021/12/26 01:39:33;;;;;;;46.93;10.30;;;-8.00;99.90;;;;;;5006430;28;20189;-54
2021/12/26 01:42:03;;;;;;;34.67;8.47;;;-8.00;99.90;;;;;;5010820;28;20213;-53
2021/12/26 01:44:30;;;;;;;42.23;10.40;;;-8.00;99.90;;;;;;5007350;28;20223;-54
2021/12/26 01:46:56;;;;;;;33.07;8.13;;;-8.10;99.90;;;;;;5013942;28;20192;-54
2021/12/26 01:49:25;;;;;;;29.13;6.97;;;-8.20;99.90;;;;;;5009915;28;20185;-54
2021/12/26 01:51:54;;;;;;;31.53;7.60;;;-8.20;99.90;;;;;;5010185;28;20207;-54
2021/12/26 01:55:21;;;;;;;32.23;7.90;;;-8.20;99.90;;;;;;5006285;28;20546;-53
2021/12/26 01:57:15;;;;;;;37.40;8.87;;;-8.30;99.90;;;;;;5002047;28;20287;-54
2021/12/26 01:59:42;;;;;;;29.50;7.70;;;-8.20;99.90;;;;;;5006502;28;20588;-54
2021/12/26 02:02:09;;;;;;;23.63;5.70;;;-8.10;99.90;;;;;;5014563;28;20215;-54
2021/12/26 02:04:39;;;;;;;49.53;11.60;;;-8.20;99.90;;;;;;5013061;28;20636;-54
2021/12/26 02:07:08;;;;;;;30.67;7.67;;;-8.10;99.90;;;;;;5010534;28;20521;-54
2021/12/26 02:09:33;;;;;;;33.90;8.30;;;-8.40;99.90;;;;;;4993536;28;20184;-53
2021/12/26 02:11:59;;;;;;;51.20;12.37;;;-8.50;99.90;;;;;;5011725;28;20268;-55
2021/12/26 02:14:25;;;;;;;43.50;11.10;;;-8.50;99.90;;;;;;5006264;28;20608;-54
2021/12/26 02:16:51;;;;;;;34.10;8.40;;;-8.60;99.90;;;;;;5009416;28;20176;-54
2021/12/26 02:19:16;;;;;;;29.50;7.87;;;-8.70;99.90;;;;;;5011002;28;20247;-53
2021/12/26 02:22:02;;;;;;;28.23;7.10;;;;;;;;;;5006207;28;20918;-54
2021/12/26 02:24:34;;;;;;;24.70;6.93;;;-8.70;99.90;;;;;;5008888;28;20184;-54
2021/12/26 02:29:44;;;;;;;53.33;15.10;;;-8.60;99.90;;;;;;5001139;28;20207;-53
2021/12/26 02:32:10;;;;;;;34.73;9.83;;;-8.60;99.90;;;;;;5006157;28;20212;-54
2021/12/26 02:34:36;;;;;;;20.07;5.87;;;-9.20;99.90;;;;;;5004940;28;20184;-53
2021/12/26 02:37:03;;;;;;;23.73;6.87;;;-8.20;99.90;;;;;;5007141;28;20181;-54
2021/12/26 02:39:31;;;;;;;20.33;5.90;;;-8.60;99.90;;;;;;5006975;28;20193;-54
2021/12/26 02:41:56;;;;;;;21.60;6.23;;;-8.70;99.90;;;;;;5009689;28;20243;-54
2021/12/26 02:44:22;;;;;;;40.43;11.77;;;-8.70;99.90;;;;;;5005666;28;20403;-54
2021/12/26 02:46:48;;;;;;;29.33;8.43;;;-8.80;99.90;;;;;;5010657;28;20207;-55
2021/12/26 02:49:13;;;;;;;29.87;8.57;;;-8.60;99.90;;;;;;5008104;28;20188;-54
2021/12/26 02:51:39;;;;;;;25.80;7.03;;;;;;;;;;5008159;28;20234;-54
2021/12/26 02:54:05;;;;;;;34.87;9.70;;;-8.60;99.90;;;;;;5010801;28;20192;-54
2021/12/26 02:56:30;;;;;;;26.13;7.30;;;-8.50;99.90;;;;;;5007657;28;22841;-54
2021/12/26 02:58:56;;;;;;;40.67;12.57;;;-8.60;99.90;;;;;;5005051;28;20180;-54
2021/12/26 03:01:26;;;;;;;26.50;7.90;;;-8.60;99.90;;;;;;5010222;28;20180;-53
2021/12/26 03:03:52;;;;;;;18.20;4.97;;;-8.70;99.90;;;;;;5009297;28;20664;-54
2021/12/26 03:08:54;;;;;;;19.27;5.53;;;-8.70;99.90;;;;;;5006618;28;20188;-54
2021/12/26 03:11:20;;;;;;;20.50;5.77;;;-8.60;99.90;;;;;;5010881;28;20264;-54
2021/12/26 03:13:46;;;;;;;30.13;9.13;;;-8.70;99.90;;;;;;5010870;28;20196;-53
2021/12/26 03:16:12;;;;;;;29.20;8.43;;;-8.80;99.90;;;;;;5008347;28;20180;-54
2021/12/26 03:18:37;;;;;;;19.30;5.77;;;-9.50;99.90;;;;;;5011474;28;20199;-54
2021/12/26 03:21:04;;;;;;;22.83;7.00;;;-8.80;99.90;;;;;;5008998;28;20188;-54
2021/12/26 03:23:29;;;;;;;27.67;8.90;;;-8.30;99.90;;;;;;5008639;28;20221;-54
2021/12/26 03:26:00;;;;;;;20.50;5.00;;;-8.80;99.90;;;;;;5027520;23;20232;-77
2021/12/26 03:28:27;;;;;;;16.93;4.33;;;-9.00;99.90;;;;;;5039712;28;20181;-78
2021/12/26 03:30:53;;;;;;;21.83;5.37;;;-8.90;99.90;;;;;;5033143;28;20191;-78
2021/12/26 03:33:20;;;;;;;25.77;6.40;;;-9.10;99.90;;;;;;5037892;28;20190;-78
2021/12/26 03:35:46;;;;;;;20.03;5.20;;;-8.90;99.90;;;;;;5038983;28;20694;-78
2021/12/26 03:38:14;;;;;;;17.80;4.67;;;-8.90;99.90;;;;;;5031692;28;20191;-78
2021/12/26 03:40:39;;;;;;;19.03;4.80;;;-9.00;99.90;;;;;;5037819;28;20195;-78
2021/12/26 03:43:06;;;;;;;26.77;6.53;;;-9.00;99.90;;;;;;5020634;28;20218;-78
2021/12/26 03:45:32;;;;;;;15.13;3.93;;;-8.40;99.90;;;;;;5036826;28;20493;-78
2021/12/26 03:47:58;;;;;;;22.00;5.40;;;-9.00;99.90;;;;;;5019894;28;20183;-78
2021/12/26 03:50:27;;;;;;;10.63;2.93;;;-8.90;99.90;;;;;;5039884;28;20728;-78
2021/12/26 03:52:56;;;;;;;16.23;4.17;;;-9.00;99.90;;;;;;5032591;28;20267;-78
2021/12/26 03:55:25;;;;;;;22.90;5.63;;;-9.00;99.90;;;;;;5037591;28;20210;-78
2021/12/26 03:57:51;;;;;;;19.53;5.10;;;-9.20;99.90;;;;;;5044949;28;20226;-78
2021/12/26 04:00:18;;;;;;;21.50;5.33;;;-9.30;99.90;;;;;;5035697;28;20623;-78
2021/12/26 04:02:45;;;;;;;23.90;5.93;;;-9.00;99.90;;;;;;5035628;28;20261;-78
2021/12/26 04:05:12;;;;;;;25.07;6.20;;;-9.10;99.90;;;;;;5038941;28;20254;-78
2021/12/26 04:07:38;;;;;;;11.67;3.17;;;-9.20;99.90;;;;;;5042805;28;20198;-78
2021/12/26 04:10:05;;;;;;;18.70;4.77;;;-9.00;99.90;;;;;;5032757;28;20697;-78
2021/12/26 04:12:35;;;;;;;19.27;4.93;;;-8.90;99.90;;;;;;5037475;28;20190;-78
2021/12/26 04:15:07;;;;;;;24.33;6.10;;;-8.90;99.90;;;;;;5036448;28;20190;-78
2021/12/26 04:17:33;;;;;;;16.37;4.43;;;-8.90;99.90;;;;;;5040154;28;20309;-78
2021/12/26 04:19:58;;;;;;;14.17;3.87;;;-8.70;99.90;;;;;;5029624;28;20199;-77
2021/12/26 04:22:24;;;;;;;28.70;7.13;;;-8.90;99.90;;;;;;5034158;28;20520;-78
2021/12/26 04:24:49;;;;;;;18.03;4.70;;;-8.90;99.90;;;;;;5037733;28;20211;-78
2021/12/26 04:27:15;;;;;;;15.03;4.03;;;-8.90;99.90;;;;;;5034748;28;20299;-78
2021/12/26 04:29:40;;;;;;;19.57;5.10;;;-8.90;99.90;;;;;;5034450;28;20692;-78
2021/12/26 04:32:06;;;;;;;13.37;3.73;;;-8.80;99.90;;;;;;5022214;28;20241;-77
2021/12/26 04:34:32;;;;;;;21.23;5.47;;;-8.70;99.90;;;;;;5036239;28;20187;-78
2021/12/26 04:36:57;;;;;;;17.90;4.83;;;-8.80;99.90;;;;;;5038480;28;20242;-78
2021/12/26 04:39:23;;;;;;;34.40;8.93;;;-8.80;99.90;;;;;;5019648;28;20666;-77
2021/12/26 04:41:48;;;;;;;15.40;4.17;;;-8.90;99.90;;;;;;5019714;28;20214;-78
2021/12/26 04:44:14;;;;;;;21.40;5.53;;;-8.90;99.90;;;;;;5015040;28;20191;-78
2021/12/26 04:46:40;;;;;;;20.57;5.40;;;-9.70;99.90;;;;;;5037603;28;20690;-78
2021/12/26 04:49:06;;;;;;;18.13;4.73;;;-8.80;99.90;;;;;;5037889;28;20621;-77
2021/12/26 04:51:31;;;;;;;19.37;5.03;;;-8.90;99.90;;;;;;5020899;28;20330;-78
2021/12/26 04:53:57;;;;;;;16.83;4.50;;;-9.00;99.90;;;;;;5033806;28;20257;-78
2021/12/26 04:56:22;;;;;;;12.27;3.50;;;-8.90;99.90;;;;;;5038607;28;20317;-77
2021/12/26 04:58:48;;;;;;;27.73;7.17;;;-9.00;99.90;;;;;;5037639;28;20878;-78
2021/12/26 05:01:14;;;;;;;17.33;4.73;;;-9.00;99.90;;;;;;5034406;28;20639;-78
2021/12/26 05:03:41;;;;;;;19.93;5.40;;;-9.00;99.90;;;;;;5036581;28;20303;-77
2021/12/26 05:06:06;;;;;;;18.77;5.13;;;-9.00;99.90;;;;;;5038378;28;20218;-77
2021/12/26 05:08:32;;;;;;;19.30;5.07;;;-9.00;99.90;;;;;;5023266;28;20179;-78
2021/12/26 05:10:58;;;;;;;25.23;6.57;;;-9.00;99.90;;;;;;5038815;28;20238;-78
2021/12/26 05:13:23;;;;;;;23.40;6.20;;;-9.00;99.90;;;;;;5037814;28;20183;-78
2021/12/26 05:15:49;;;;;;;16.30;4.53;;;-9.00;99.90;;;;;;5033700;28;20220;-79
2021/12/26 05:18:14;;;;;;;17.63;4.83;;;-9.10;99.90;;;;;;5037094;28;20658;-78
2021/12/26 05:20:40;;;;;;;21.00;5.63;;;-9.10;99.90;;;;;;5038542;28;20778;-78
2021/12/26 05:23:05;;;;;;;14.40;4.10;;;-9.10;99.90;;;;;;5042098;28;20212;-78
2021/12/26 05:25:31;;;;;;;17.53;4.83;;;-9.10;99.90;;;;;;5036406;28;20219;-78
2021/12/26 05:27:57;;;;;;;17.80;4.83;;;-9.00;99.90;;;;;;5040945;28;20553;-78
2021/12/26 05:30:24;;;;;;;18.33;4.90;;;-9.10;99.90;;;;;;5037149;28;20187;-78
2021/12/26 05:32:50;;;;;;;16.87;4.63;;;-9.10;99.90;;;;;;5040564;28;20189;-78
2021/12/26 05:35:17;;;;;;;18.27;4.97;;;-9.00;99.90;;;;;;5040197;28;20204;-78
2021/12/26 05:37:44;;;;;;;20.20;5.50;;;-8.50;99.90;;;;;;5043662;28;20281;-78
2021/12/26 05:40:11;;;;;;;14.03;3.90;;;-9.10;99.90;;;;;;5036826;28;20184;-79
2021/12/26 05:42:37;;;;;;;19.90;5.40;;;-8.90;99.90;;;;;;5035612;28;20298;-78
2021/12/26 05:45:05;;;;;;;18.77;5.10;;;-9.10;99.90;;;;;;5033226;28;20570;-78
2021/12/26 05:47:31;;;;;;;16.47;4.50;;;-9.20;99.90;;;;;;5039927;28;20326;-78
2021/12/26 05:49:57;;;;;;;22.70;6.10;;;-9.20;99.90;;;;;;5038478;28;20179;-79
2021/12/26 05:52:23;;;;;;;25.30;6.73;;;-9.20;99.90;;;;;;5019192;28;20184;-79
2021/12/26 05:54:49;;;;;;;16.53;4.57;;;-9.20;99.90;;;;;;5041131;28;20192;-79
2021/12/26 05:57:15;;;;;;;14.47;4.07;;;-9.30;99.90;;;;;;5039029;28;20200;-78
2021/12/26 05:59:41;;;;;;;16.87;4.67;;;-9.50;99.90;;;;;;5035874;28;20199;-78
2021/12/26 06:02:07;;;;;;;11.13;3.23;;;-9.40;99.90;;;;;;5042154;28;20347;-78
2021/12/26 06:04:32;;;;;;;14.20;4.10;;;-9.30;99.90;;;;;;5047805;28;20187;-79
2021/12/26 06:06:58;;;;;;;20.97;5.90;;;-9.30;99.90;;;;;;5041360;28;20318;-78
2021/12/26 06:09:24;;;;;;;11.47;3.33;;;-9.40;99.90;;;;;;5029489;28;20176;-79
2021/12/26 06:11:50;;;;;;;15.63;4.50;;;-9.30;99.90;;;;;;5036464;28;20180;-78
2021/12/26 06:14:15;;;;;;;27.90;7.70;;;-9.40;99.90;;;;;;5037148;28;20230;-78
2021/12/26 06:16:41;;;;;;;12.37;3.87;;;-9.20;99.90;;;;;;5041026;28;20242;-78
2021/12/26 06:19:07;;;;;;;13.83;4.10;;;-9.30;99.90;;;;;;5038061;28;20187;-78
2021/12/26 06:21:32;;;;;;;19.50;5.63;;;-9.40;99.90;;;;;;5038957;28;20206;-79
2021/12/26 06:23:58;;;;;;;13.50;4.03;;;-9.30;99.90;;;;;;5035559;28;20353;-78
2021/12/26 06:26:25;;;;;;;17.90;5.40;;;-9.40;99.90;;;;;;5040420;28;20211;-78
2021/12/26 06:28:51;;;;;;;19.83;5.90;;;-9.40;99.90;;;;;;5037048;28;20496;-78
2021/12/26 06:31:17;;;;;;;14.43;4.27;;;-8.80;99.90;;;;;;5038013;28;20184;-78
2021/12/26 06:33:43;;;;;;;20.73;5.97;;;-9.00;99.90;;;;;;5039744;28;20194;-78
2021/12/26 06:36:09;;;;;;;20.70;6.07;;;-9.20;99.90;;;;;;5016585;28;20208;-78
2021/12/26 06:38:37;;;;;;;16.53;5.03;;;-9.40;99.90;;;;;;5036560;28;20241;-78
2021/12/26 06:41:03;;;;;;;12.97;4.03;;;-9.80;99.90;;;;;;5039757;28;20183;-79
2021/12/26 06:43:29;;;;;;;19.73;5.60;;;-9.40;99.90;;;;;;5039434;28;20199;-78
2021/12/26 06:45:55;;;;;;;23.00;6.43;;;-9.40;99.90;;;;;;5027447;28;20203;-78
2021/12/26 06:48:21;;;;;;;17.50;5.27;;;-9.60;99.90;;;;;;5038028;28;20172;-77
2021/12/26 06:50:48;;;;;;;24.03;7.17;;;-10.00;99.90;;;;;;5036634;28;20207;-77
2021/12/26 06:53:14;;;;;;;23.17;6.83;;;-9.70;99.90;;;;;;5020737;28;20188;-77
2021/12/26 06:55:40;;;;;;;19.70;5.90;;;-10.00;99.90;;;;;;5037987;28;20192;-76
2021/12/26 06:58:06;;;;;;;18.80;5.37;;;-9.60;99.90;;;;;;5035795;28;20194;-77
2021/12/26 07:00:32;;;;;;;12.10;3.67;;;-9.80;99.90;;;;;;5035198;28;20218;-78
2021/12/26 07:02:58;;;;;;;31.83;9.17;;;-9.80;99.90;;;;;;5039064;28;20195;-76
2021/12/26 07:05:23;;;;;;;10.93;3.53;;;-9.70;99.90;;;;;;5042111;28;20225;-76
2021/12/26 07:07:49;;;;;;;16.47;5.10;;;-9.70;99.90;;;;;;5039642;28;20517;-76
2021/12/26 07:10:15;;;;;;;16.57;4.93;;;-9.90;99.90;;;;;;5041503;28;20175;-75
2021/12/26 07:12:41;;;;;;;17.23;5.40;;;-9.90;99.90;;;;;;5025191;28;20180;-75
2021/12/26 07:15:08;;;;;;;22.90;6.50;;;;;;;;;;5039162;28;20179;-75
2021/12/26 07:17:35;;;;;;;27.17;7.97;;;;;;;;;;5026257;28;20190;-75
2021/12/26 07:20:01;;;;;;;16.13;5.10;;;-9.80;99.90;;;;;;5031884;28;21318;-75
2021/12/26 07:22:27;;;;;;;23.97;7.27;;;-9.80;99.90;;;;;;5031821;28;20215;-75
2021/12/26 07:24:52;;;;;;;16.83;5.33;;;-10.00;99.90;;;;;;5033609;28;20732;-75
2021/12/26 07:27:18;;;;;;;13.00;4.37;;;-9.80;99.90;;;;;;5032985;28;20206;-75
2021/12/26 07:29:44;;;;;;;14.00;4.93;;;-9.90;99.90;;;;;;5030848;28;20251;-75
2021/12/26 07:32:10;;;;;;;17.10;5.63;;;-9.80;99.90;;;;;;5037783;28;20191;-75
2021/12/26 07:34:37;;;;;;;10.57;3.70;;;-9.90;99.90;;;;;;5034936;28;20274;-75
2021/12/26 07:37:03;;;;;;;16.00;5.23;;;-9.70;99.90;;;;;;5043179;28;20211;-75
2021/12/26 07:39:29;;;;;;;22.03;6.80;;;-9.70;99.90;;;;;;5029831;28;20183;-75
2021/12/26 07:41:55;;;;;;;15.87;4.93;;;-9.70;99.90;;;;;;5032589;28;20497;-75
2021/12/26 07:44:20;;;;;;;18.07;6.27;;;-9.70;99.90;;;;;;5032385;28;20220;-75
2021/12/26 07:46:46;;;;;;;19.10;6.57;;;-9.60;99.90;;;;;;5034143;28;20222;-75
2021/12/26 07:49:11;;;;;;;15.97;5.67;;;-9.70;99.90;;;;;;5030776;28;20643;-75
2021/12/26 07:51:37;;;;;;;18.20;6.13;;;-9.70;99.90;;;;;;5028751;28;20255;-75
2021/12/26 07:54:03;;;;;;;15.07;5.30;;;-9.70;99.90;;;;;;5011326;28;20273;-75
2021/12/26 07:56:30;;;;;;;16.20;5.60;;;-9.60;99.90;;;;;;5033615;28;20793;-75
2021/12/26 07:58:55;;;;;;;20.03;6.77;;;-9.20;99.90;;;;;;5033082;28;20185;-75
2021/12/26 08:01:21;;;;;;;16.33;5.43;;;-9.90;99.90;;;;;;5027261;28;20191;-75
2021/12/26 08:03:47;;;;;;;18.40;6.27;;;-9.50;99.90;;;;;;5026882;28;20238;-75
2021/12/26 08:06:18;;;;;;;13.70;4.80;;;-9.60;99.90;;;;;;5030477;28;20412;-75
2021/12/26 08:08:47;;;;;;;10.87;3.63;;;-9.30;99.90;;;;;;5031837;28;23064;-75
2021/12/26 08:11:13;;;;;;;21.67;6.83;;;-9.10;99.90;;;;;;5020988;28;20563;-76
2021/12/26 08:13:40;;;;;;;18.23;5.87;;;-9.10;99.90;;;;;;5031950;28;20191;-75
2021/12/26 08:16:06;;;;;;;9.00;5.17;;;-8.90;99.90;;;;;;5033473;23;20319;-50
2021/12/26 08:18:32;;;;;;;10.90;6.20;;;-8.60;99.90;;;;;;5019882;28;20183;-50
2021/12/26 08:20:58;;;;;;;8.87;5.23;;;-8.70;99.90;;;;;;5024995;28;20180;-50
2021/12/26 08:23:23;;;;;;;5.97;4.63;;;-8.60;99.90;;;;;;4994909;28;20220;-50
2021/12/26 08:25:49;;;;;;;11.07;5.73;;;-8.70;99.90;;;;;;5004118;28;20262;-50
2021/12/26 08:28:15;;;;;;;11.00;6.67;;;-8.60;99.90;;;;;;5008308;28;20263;-50
2021/12/26 08:30:42;;;;;;;15.20;8.73;;;-8.50;99.90;;;;;;5000712;28;20180;-49
2021/12/26 08:33:08;;;;;;;8.60;4.60;;;-8.50;99.90;;;;;;5014100;28;20207;-50
2021/12/26 08:35:35;;;;;;;10.80;6.57;;;-8.40;99.90;;;;;;5003226;28;20668;-50
2021/12/26 08:38:01;;;;;;;13.20;7.00;;;-8.50;99.90;;;;;;5006171;28;20195;-50
2021/12/26 08:40:27;;;;;;;12.20;6.37;;;-8.40;99.90;;;;;;5009706;28;20183;-50
2021/12/26 08:42:53;;;;;;;18.03;8.83;;;-8.30;99.90;;;;;;5007746;28;20243;-50
2021/12/26 08:45:19;;;;;;;16.53;8.63;;;-8.30;99.90;;;;;;5003003;28;20271;-50
2021/12/26 08:47:46;;;;;;;10.80;5.60;;;-8.40;99.90;;;;;;5011018;28;20801;-50
2021/12/26 08:50:12;;;;;;;10.17;4.93;;;-8.30;99.90;;;;;;5010596;28;20176;-50
2021/12/26 08:52:39;;;;;;;8.37;5.17;;;-8.00;99.90;;;;;;5006888;28;20298;-50
2021/12/26 08:55:06;;;;;;;14.87;6.80;;;-8.20;99.90;;;;;;5001586;28;20195;-50
2021/12/26 08:57:32;;;;;;;10.73;5.30;;;-8.00;99.90;;;;;;5018147;28;20242;-50
2021/12/26 08:59:58;;;;;;;16.50;8.60;;;-7.90;99.90;;;;;;5009793;28;20184;-51
2021/12/26 09:02:24;;;;;;;10.20;6.23;;;-7.80;99.90;;;;;;5015359;28;20200;-51
2021/12/26 09:04:50;;;;;;;13.93;7.83;;;-7.80;99.90;;;;;;5009603;28;20180;-50
2021/12/26 09:07:15;;;;;;;14.97;7.80;;;-7.70;99.90;;;;;;5006917;28;20192;-49
2021/12/26 09:09:42;;;;;;;9.30;5.63;;;-7.80;99.90;;;;;;5003637;28;21111;-50
2021/12/26 09:12:08;;;;;;;10.60;6.20;;;-7.70;99.90;;;;;;5003535;28;20204;-51
2021/12/26 09:14:34;;;;;;;11.30;5.87;;;-7.70;99.90;;;;;;5009313;28;20184;-50
2021/12/26 09:17:00;;;;;;;10.73;4.53;;;-7.10;99.90;;;;;;5026068;28;20279;-51
2021/12/26 09:19:28;;;;;;;7.47;3.43;;;-7.00;99.90;;;;;;5028911;28;20679;-50
2021/12/26 09:21:55;;;;;;;7.83;4.23;;;-6.80;99.90;;;;;;5021485;28;20311;-50
2021/12/26 09:24:20;;;;;;;7.90;3.83;;;-6.40;99.90;;;;;;5027411;28;20624;-51
2021/12/26 09:26:46;;;;;;;7.70;3.17;;;-6.40;99.90;;;;;;5042820;23;20223;-45
2021/12/26 09:29:12;;;;;;;7.53;3.13;;;-6.10;99.90;;;;;;5051071;28;20523;-45
2021/12/26 09:31:37;;;;;;;8.07;3.07;;;-6.40;99.90;;;;;;5052476;28;20170;-45
2021/12/26 09:34:03;;;;;;;6.30;2.60;;;-6.40;99.90;;;;;;5052384;28;20480;-46
2021/12/26 09:36:28;;;;;;;6.67;2.90;;;-6.70;99.90;;;;;;5053525;28;20577;-46
2021/12/26 09:38:54;;;;;;;7.77;3.23;;;-6.80;99.90;;;;;;5053239;28;20261;-46
2021/12/26 09:41:20;;;;;;;8.03;3.13;;;-6.80;99.90;;;;;;5051854;28;20203;-46
2021/12/26 09:43:45;;;;;;;4.60;2.13;;;-6.60;99.90;;;;;;5052758;28;20206;-45
2021/12/26 09:46:12;;;;;;;6.53;2.73;;;-6.80;99.90;;;;;;5053071;28;20179;-46
2021/12/26 09:48:37;;;;;;;3.60;1.87;;;-6.70;99.90;;;;;;5051429;28;20277;-46
2021/12/26 09:51:03;;;;;;;3.80;2.13;;;-6.50;99.90;;;;;;5053297;28;20178;-46
2021/12/26 09:53:29;;;;;;;6.93;3.07;;;-6.50;99.90;;;;;;5051649;28;20195;-46
2021/12/26 09:55:54;;;;;;;7.00;2.83;;;-6.70;99.90;;;;;;5052015;28;20274;-46
2021/12/26 09:58:20;;;;;;;9.40;3.70;;;-6.60;99.90;;;;;;5050345;28;20185;-46
2021/12/26 10:00:47;;;;;;;7.00;2.93;;;-6.60;99.90;;;;;;5052393;28;20172;-46
2021/12/26 10:03:23;;;;;;;7.30;3.03;;;-6.60;99.90;;;;;;5052467;28;20204;-46
2021/12/26 10:06:09;;;;;;;3.80;1.93;;;-6.50;99.90;;;;;;5051702;28;20160;-46
2021/12/26 10:08:59;;;;;;;5.27;2.37;;;-6.50;99.90;;;;;;5053289;28;20546;-45
2021/12/26 10:11:29;;;;;;;5.60;2.67;;;-6.30;99.90;;;;;;5051058;28;20183;-45
2021/12/26 10:13:58;;;;;;;2.97;1.63;;;-6.30;99.90;;;;;;5052325;28;20669;-46
2021/12/26 10:16:27;;;;;;;5.70;2.67;;;-6.50;99.90;;;;;;5052568;28;20172;-45
2021/12/26 10:18:54;;;;;;;7.03;2.93;;;-6.20;99.90;;;;;;5050885;28;20191;-45
2021/12/26 10:21:38;;;;;;;6.23;2.70;;;-6.10;99.90;;;;;;5051346;28;20171;-46
2021/12/26 10:24:05;;;;;;;5.37;2.27;;;-6.10;99.90;;;;;;5052129;28;20620;-45
2021/12/26 10:26:35;;;;;;;6.53;2.70;;;-6.10;99.90;;;;;;5051864;28;20179;-46
2021/12/26 10:29:11;;;;;;;8.80;3.47;;;-6.10;99.90;;;;;;5051040;28;20588;-46
2021/12/26 10:31:42;;;;;;;3.20;1.77;;;-6.00;99.90;;;;;;5050586;28;20872;-45
2021/12/26 10:34:18;;;;;;;6.93;2.77;;;-6.00;99.90;;;;;;5051619;28;20171;-45
2021/12/26 10:36:45;;;;;;;8.60;3.57;;;-6.00;99.90;;;;;;5049893;28;20214;-46
2021/12/26 10:39:14;;;;;;;3.43;1.80;;;-6.00;99.90;;;;;;5051117;28;20188;-46
2021/12/26 10:41:42;;;;;;;6.23;2.80;;;-5.90;99.90;;;;;;5049876;28;20179;-46
2021/12/26 10:44:21;;;;;;;8.73;3.30;;;-5.90;99.90;;;;;;5048279;28;20254;-46
2021/12/26 10:46:48;;;;;;;6.40;2.57;;;-5.80;99.90;;;;;;5051461;28;20505;-46
2021/12/26 10:49:35;;;;;;;9.93;3.87;;;-5.80;99.90;;;;;;5050185;28;20631;-46
2021/12/26 10:52:01;;;;;;;7.07;3.03;;;-6.00;99.90;;;;;;5050636;28;20689;-46
2021/12/26 10:54:31;;;;;;;6.70;2.90;;;-5.70;99.90;;;;;;5051416;28;20184;-46
2021/12/26 10:57:13;;;;;;;5.97;2.87;;;-5.60;99.90;;;;;;5049548;28;20186;-45
2021/12/26 10:59:41;;;;;;;9.30;3.77;;;-5.50;99.90;;;;;;5049595;28;20228;-46
2021/12/26 11:02:07;;;;;;;11.93;5.13;;;-5.50;99.90;;;;;;5047430;28;20214;-45
2021/12/26 11:04:35;;;;;;;7.87;3.40;;;-5.40;99.90;;;;;;5047533;28;20171;-46
2021/12/26 11:07:10;;;;;;;4.87;2.43;;;-5.20;99.90;;;;;;5049890;28;20168;-46
2021/12/26 11:09:36;;;;;;;4.63;2.37;;;-5.20;99.90;;;;;;5048361;28;20611;-46
2021/12/26 11:12:05;;;;;;;6.00;2.80;;;-5.20;99.90;;;;;;5040061;28;20240;-45
2021/12/26 11:14:31;;;;;;;6.37;2.87;;;-5.10;99.90;;;;;;5029315;28;20165;-46
2021/12/26 11:16:57;;;;;;;6.67;2.77;;;-5.00;99.90;;;;;;5029532;28;20164;-46
2021/12/26 11:19:41;;;;;;;5.10;2.37;;;-5.00;99.90;;;;;;5029394;28;20263;-46
2021/12/26 11:22:08;;;;;;;5.93;2.47;;;-4.90;99.90;;;;;;5028853;28;20326;-46
2021/12/26 11:24:34;;;;;;;7.20;3.17;;;-4.60;99.90;;;;;;5028953;28;20259;-46
2021/12/26 11:26:59;;;;;;;5.83;2.57;;;-4.70;99.90;;;;;;5028153;28;20286;-46
2021/12/26 11:29:25;;;;;;;8.23;3.57;;;-4.60;99.90;;;;;;5029380;28;20706;-46
2021/12/26 11:31:53;;;;;;;5.17;2.40;;;-4.50;99.90;;;;;;5029481;28;20192;-46
2021/12/26 11:34:19;;;;;;;4.83;2.27;;;-4.40;99.90;;;;;;5029394;28;20188;-46
2021/12/26 11:36:48;;;;;;;6.07;2.90;;;-4.30;99.90;;;;;;5028181;28;20168;-46
2021/12/26 11:39:14;;;;;;;7.00;2.97;;;-4.20;99.90;;;;;;5028920;28;20213;-46
2021/12/26 11:42:13;;;;;;;6.43;2.80;;;-4.10;99.90;;;;;;5029203;28;20278;-46
2021/12/26 11:45:11;;;;;;;5.93;2.83;;;-4.00;99.90;;;;;;5028611;28;20157;-47
2021/12/26 11:48:20;;;;;;;4.33;2.13;;;-3.80;99.90;;;;;;5028407;28;20171;-46
2021/12/26 11:51:01;;;;;;;5.40;2.50;;;-3.70;99.90;;;;;;5029548;28;20575;-46
2021/12/26 11:53:36;;;;;;;5.70;2.57;;;-3.50;99.90;;;;;;5028189;28;20366;-46
2021/12/26 11:56:21;;;;;;;5.80;2.60;;;-3.40;99.90;;;;;;5029139;28;20159;-46
2021/12/26 11:59:17;;;;;;;8.17;3.17;;;-3.30;99.90;;;;;;5028677;28;20627;-46
2021/12/26 12:01:46;;;;;;;6.80;2.80;;;-2.90;99.90;;;;;;5028599;28;20239;-46
2021/12/26 12:04:22;;;;;;;5.60;2.40;;;-2.70;99.90;;;;;;5028620;28;20490;-46
2021/12/26 12:06:49;;;;;;;7.83;3.00;;;-2.60;99.90;;;;;;5028090;28;20179;-46
2021/12/26 12:09:28;;;;;;;9.37;3.20;;;-2.80;99.90;;;;;;5027549;28;20168;-46
2021/12/26 12:11:58;;;;;;;6.37;2.30;;;-2.40;99.90;;;;;;5026799;28;20652;-46
2021/12/26 12:14:56;;;;;;;11.03;3.17;;;-2.20;99.90;;;;;;5028322;28;20658;-46
2021/12/26 12:17:29;;;;;;;13.87;3.63;;;-2.30;99.90;;;;;;5006115;28;20277;-46
2021/12/26 12:20:17;;;;;;;12.37;3.33;;;-2.20;99.90;;;;;;5027023;28;20532;-46
2021/12/26 12:23:04;;;;;;;17.87;4.40;;;-2.00;99.90;;;;;;5026699;28;20227;-46
2021/12/26 12:25:33;;;;;;;15.47;4.13;;;-2.10;99.90;;;;;;5028336;28;20331;-46
2021/12/26 12:28:13;;;;;;;18.20;4.13;;;-2.20;99.90;;;;;;5027815;28;20192;-46
2021/12/26 12:30:41;;;;;;;18.37;4.67;;;-1.90;99.90;;;;;;5027044;28;20617;-46
2021/12/26 12:33:29;;;;;;;11.63;3.70;;;-1.60;99.90;;;;;;5026659;28;20697;-46
2021/12/26 12:36:09;;;;;;;16.60;4.17;;;-1.40;99.90;;;;;;5032402;28;20616;-46
2021/12/26 12:38:40;;;;;;;14.00;3.77;;;-1.10;99.90;;;;;;5031326;28;20279;-46
2021/12/26 12:41:28;;;;;;;10.97;3.17;;;-0.80;99.90;;;;;;5031688;28;20219;-46
2021/12/26 12:43:59;;;;;;;13.53;3.57;;;-0.40;99.90;;;;;;5031890;28;20204;-46
2021/12/26 12:46:25;;;;;;;13.93;3.47;;;0.00;99.90;;;;;;5030590;28;20635;-46
2021/12/26 12:49:00;;;;;;;13.73;3.57;;;-0.20;99.90;;;;;;5032251;28;20801;-46
2021/12/26 12:51:25;;;;;;;16.10;4.30;;;0.10;99.90;;;;;;5044972;28;20198;-46
2021/12/26 12:53:55;;;;;;;14.63;3.97;;;0.20;99.90;;;;;;5051705;28;20191;-46